sensor_id;sensor_type;location;lat;lon;timestamp;P1;durP1;ratioP1;P2;durP2;ratioP2
9716;SDS011;4897;43.570;27.832;2022-10-26T00:00:12;37.80;;;17.27;;
9716;SDS011;4897;43.570;27.832;2022-10-26T00:02:41;27.73;;;10.98;;
9716;SDS011;4897;43.570;27.832;2022-10-26T00:05:08;21.63;;;8.95;;
9716;SDS011;4897;43.570;27.832;2022-10-26T00:07:35;14.27;;;5.95;;
9716;SDS011;4897;43.570;27.832;2022-10-26T00:10:02;15.95;;;5.55;;
9716;SDS011;4897;43.570;27.832;2022-10-26T00:12:29;12.65;;;4.47;;
9716;SDS011;4897;43.570;27.832;2022-10-26T00:14:57;10.73;;;4.00;;
9716;SDS011;4897;43.570;27.832;2022-10-26T00:17:24;8.50;;;3.97;;
9716;SDS011;4897;43.570;27.832;2022-10-26T00:19:51;9.65;;;3.78;;
9716;SDS011;4897;43.570;27.832;2022-10-26T00:22:17;10.77;;;4.22;;
9716;SDS011;4897;43.570;27.832;2022-10-26T00:24:44;9.43;;;4.38;;
9716;SDS011;4897;43.570;27.832;2022-10-26T00:27:11;6.82;;;4.10;;
9716;SDS011;4897;43.570;27.832;2022-10-26T00:29:38;11.20;;;4.20;;
9716;SDS011;4897;43.570;27.832;2022-10-26T00:32:06;8.80;;;4.30;;
9716;SDS011;4897;43.570;27.832;2022-10-26T00:34:33;8.40;;;4.30;;
9716;SDS011;4897;43.570;27.832;2022-10-26T00:37:00;8.25;;;4.63;;
9716;SDS011;4897;43.570;27.832;2022-10-26T00:39:27;13.98;;;4.55;;
9716;SDS011;4897;43.570;27.832;2022-10-26T00:41:54;13.02;;;5.30;;
9716;SDS011;4897;43.570;27.832;2022-10-26T00:47:37;17.50;;;4.72;;
9716;SDS011;4897;43.570;27.832;2022-10-26T00:50:08;11.40;;;4.97;;
9716;SDS011;4897;43.570;27.832;2022-10-26T00:52:38;12.75;;;4.55;;
9716;SDS011;4897;43.570;27.832;2022-10-26T00:55:06;9.68;;;4.82;;
9716;SDS011;4897;43.570;27.832;2022-10-26T00:57:34;16.55;;;5.00;;
9716;SDS011;4897;43.570;27.832;2022-10-26T01:00:03;10.43;;;4.68;;
9716;SDS011;4897;43.570;27.832;2022-10-26T01:02:31;12.80;;;4.70;;
9716;SDS011;4897;43.570;27.832;2022-10-26T01:05:00;15.13;;;4.75;;
9716;SDS011;4897;43.570;27.832;2022-10-26T01:07:30;8.27;;;4.45;;
9716;SDS011;4897;43.570;27.832;2022-10-26T01:09:57;10.65;;;5.05;;
9716;SDS011;4897;43.570;27.832;2022-10-26T01:12:25;15.32;;;4.72;;
9716;SDS011;4897;43.570;27.832;2022-10-26T01:14:52;12.90;;;4.65;;
9716;SDS011;4897;43.570;27.832;2022-10-26T01:17:26;14.68;;;5.05;;
9716;SDS011;4897;43.570;27.832;2022-10-26T01:23:03;11.70;;;5.05;;
9716;SDS011;4897;43.570;27.832;2022-10-26T01:25:41;11.10;;;5.40;;
9716;SDS011;4897;43.570;27.832;2022-10-26T01:28:27;8.68;;;4.90;;
9716;SDS011;4897;43.570;27.832;2022-10-26T01:31:06;16.17;;;5.18;;
9716;SDS011;4897;43.570;27.832;2022-10-26T01:33:37;9.68;;;5.25;;
9716;SDS011;4897;43.570;27.832;2022-10-26T01:36:09;13.73;;;5.43;;
9716;SDS011;4897;43.570;27.832;2022-10-26T01:38:41;21.35;;;5.43;;
9716;SDS011;4897;43.570;27.832;2022-10-26T01:41:15;14.27;;;5.95;;
9716;SDS011;4897;43.570;27.832;2022-10-26T01:43:48;12.32;;;5.30;;
9716;SDS011;4897;43.570;27.832;2022-10-26T01:46:21;12.27;;;6.47;;
9716;SDS011;4897;43.570;27.832;2022-10-26T01:48:49;27.60;;;9.10;;
9716;SDS011;4897;43.570;27.832;2022-10-26T01:51:21;19.90;;;7.05;;
9716;SDS011;4897;43.570;27.832;2022-10-26T01:53:48;20.08;;;7.43;;
9716;SDS011;4897;43.570;27.832;2022-10-26T01:56:17;15.68;;;7.57;;
9716;SDS011;4897;43.570;27.832;2022-10-26T01:58:55;16.52;;;7.47;;
9716;SDS011;4897;43.570;27.832;2022-10-26T02:01:45;15.68;;;7.43;;
9716;SDS011;4897;43.570;27.832;2022-10-26T02:04:33;23.83;;;7.95;;
9716;SDS011;4897;43.570;27.832;2022-10-26T02:07:09;16.25;;;7.57;;
9716;SDS011;4897;43.570;27.832;2022-10-26T02:09:45;20.20;;;7.55;;
9716;SDS011;4897;43.570;27.832;2022-10-26T02:12:20;14.38;;;7.38;;
9716;SDS011;4897;43.570;27.832;2022-10-26T02:14:59;13.43;;;7.18;;
9716;SDS011;4897;43.570;27.832;2022-10-26T02:17:34;16.88;;;8.70;;
9716;SDS011;4897;43.570;27.832;2022-10-26T02:20:08;20.73;;;9.13;;
9716;SDS011;4897;43.570;27.832;2022-10-26T02:22:40;23.00;;;8.48;;
9716;SDS011;4897;43.570;27.832;2022-10-26T02:25:11;16.95;;;8.40;;
9716;SDS011;4897;43.570;27.832;2022-10-26T02:27:43;12.73;;;6.80;;
9716;SDS011;4897;43.570;27.832;2022-10-26T02:30:16;19.15;;;7.75;;
9716;SDS011;4897;43.570;27.832;2022-10-26T02:32:45;13.65;;;6.80;;
9716;SDS011;4897;43.570;27.832;2022-10-26T02:35:16;13.85;;;6.97;;
9716;SDS011;4897;43.570;27.832;2022-10-26T02:37:46;16.80;;;6.70;;
9716;SDS011;4897;43.570;27.832;2022-10-26T02:40:17;15.20;;;6.97;;
9716;SDS011;4897;43.570;27.832;2022-10-26T02:42:46;16.20;;;7.10;;
9716;SDS011;4897;43.570;27.832;2022-10-26T02:45:15;14.52;;;6.68;;
9716;SDS011;4897;43.570;27.832;2022-10-26T02:47:47;18.65;;;7.20;;
9716;SDS011;4897;43.570;27.832;2022-10-26T02:50:15;13.52;;;6.95;;
9716;SDS011;4897;43.570;27.832;2022-10-26T02:52:44;14.05;;;7.18;;
9716;SDS011;4897;43.570;27.832;2022-10-26T02:55:17;18.17;;;7.18;;
9716;SDS011;4897;43.570;27.832;2022-10-26T02:57:50;21.10;;;6.90;;
9716;SDS011;4897;43.570;27.832;2022-10-26T03:00:21;23.10;;;6.53;;
9716;SDS011;4897;43.570;27.832;2022-10-26T03:02:51;13.23;;;5.72;;
9716;SDS011;4897;43.570;27.832;2022-10-26T03:05:23;18.00;;;7.05;;
9716;SDS011;4897;43.570;27.832;2022-10-26T03:07:52;16.42;;;6.53;;
9716;SDS011;4897;43.570;27.832;2022-10-26T03:10:19;11.30;;;6.47;;
9716;SDS011;4897;43.570;27.832;2022-10-26T03:12:46;11.40;;;6.00;;
9716;SDS011;4897;43.570;27.832;2022-10-26T03:15:13;15.40;;;6.40;;
9716;SDS011;4897;43.570;27.832;2022-10-26T03:17:40;15.23;;;6.90;;
9716;SDS011;4897;43.570;27.832;2022-10-26T03:20:09;11.68;;;6.72;;
9716;SDS011;4897;43.570;27.832;2022-10-26T03:22:36;12.55;;;7.47;;
9716;SDS011;4897;43.570;27.832;2022-10-26T03:25:04;18.67;;;6.82;;
9716;SDS011;4897;43.570;27.832;2022-10-26T03:27:31;11.57;;;6.82;;
9716;SDS011;4897;43.570;27.832;2022-10-26T03:29:59;16.50;;;7.45;;
9716;SDS011;4897;43.570;27.832;2022-10-26T03:32:26;12.80;;;6.80;;
9716;SDS011;4897;43.570;27.832;2022-10-26T03:34:52;13.77;;;7.55;;
9716;SDS011;4897;43.570;27.832;2022-10-26T03:37:21;14.65;;;7.45;;
9716;SDS011;4897;43.570;27.832;2022-10-26T03:39:48;14.13;;;7.65;;
9716;SDS011;4897;43.570;27.832;2022-10-26T03:42:14;14.07;;;7.30;;
9716;SDS011;4897;43.570;27.832;2022-10-26T03:44:41;13.48;;;6.95;;
9716;SDS011;4897;43.570;27.832;2022-10-26T03:47:08;16.23;;;7.72;;
9716;SDS011;4897;43.570;27.832;2022-10-26T03:49:35;11.23;;;7.28;;
9716;SDS011;4897;43.570;27.832;2022-10-26T03:52:02;15.43;;;7.05;;
9716;SDS011;4897;43.570;27.832;2022-10-26T03:54:31;14.35;;;6.95;;
9716;SDS011;4897;43.570;27.832;2022-10-26T03:56:57;18.15;;;6.80;;
9716;SDS011;4897;43.570;27.832;2022-10-26T03:59:24;14.05;;;7.00;;
9716;SDS011;4897;43.570;27.832;2022-10-26T04:01:51;13.57;;;7.43;;
9716;SDS011;4897;43.570;27.832;2022-10-26T04:04:18;13.20;;;6.80;;
9716;SDS011;4897;43.570;27.832;2022-10-26T04:06:45;13.07;;;7.00;;
9716;SDS011;4897;43.570;27.832;2022-10-26T04:09:12;11.73;;;7.20;;
9716;SDS011;4897;43.570;27.832;2022-10-26T04:11:40;10.93;;;6.43;;
9716;SDS011;4897;43.570;27.832;2022-10-26T04:14:07;13.27;;;7.70;;
9716;SDS011;4897;43.570;27.832;2022-10-26T04:16:33;17.77;;;7.00;;
9716;SDS011;4897;43.570;27.832;2022-10-26T04:19:00;16.45;;;6.88;;
9716;SDS011;4897;43.570;27.832;2022-10-26T04:21:27;12.40;;;6.55;;
9716;SDS011;4897;43.570;27.832;2022-10-26T04:23:56;11.27;;;7.53;;
9716;SDS011;4897;43.570;27.832;2022-10-26T04:26:23;18.10;;;6.85;;
9716;SDS011;4897;43.570;27.832;2022-10-26T04:28:52;11.32;;;6.40;;
9716;SDS011;4897;43.570;27.832;2022-10-26T04:31:19;12.32;;;6.57;;
9716;SDS011;4897;43.570;27.832;2022-10-26T04:33:45;11.13;;;6.57;;
9716;SDS011;4897;43.570;27.832;2022-10-26T04:36:12;14.45;;;6.68;;
9716;SDS011;4897;43.570;27.832;2022-10-26T04:38:39;14.77;;;7.38;;
9716;SDS011;4897;43.570;27.832;2022-10-26T04:41:13;9.98;;;6.50;;
9716;SDS011;4897;43.570;27.832;2022-10-26T04:43:40;20.10;;;7.32;;
9716;SDS011;4897;43.570;27.832;2022-10-26T04:46:08;18.27;;;6.88;;
9716;SDS011;4897;43.570;27.832;2022-10-26T04:48:37;15.07;;;7.60;;
9716;SDS011;4897;43.570;27.832;2022-10-26T04:51:04;13.07;;;6.68;;
9716;SDS011;4897;43.570;27.832;2022-10-26T04:53:31;12.20;;;6.00;;
9716;SDS011;4897;43.570;27.832;2022-10-26T04:55:58;17.17;;;7.22;;
9716;SDS011;4897;43.570;27.832;2022-10-26T04:58:26;15.85;;;7.32;;
9716;SDS011;4897;43.570;27.832;2022-10-26T05:00:53;12.48;;;7.45;;
9716;SDS011;4897;43.570;27.832;2022-10-26T05:03:22;16.17;;;7.28;;
9716;SDS011;4897;43.570;27.832;2022-10-26T05:05:49;15.68;;;6.47;;
9716;SDS011;4897;43.570;27.832;2022-10-26T05:08:16;11.88;;;6.65;;
9716;SDS011;4897;43.570;27.832;2022-10-26T05:10:46;9.68;;;6.05;;
9716;SDS011;4897;43.570;27.832;2022-10-26T05:13:15;13.98;;;7.45;;
9716;SDS011;4897;43.570;27.832;2022-10-26T05:15:42;17.40;;;8.98;;
9716;SDS011;4897;43.570;27.832;2022-10-26T05:18:09;16.65;;;7.88;;
9716;SDS011;4897;43.570;27.832;2022-10-26T05:20:37;13.18;;;6.38;;
9716;SDS011;4897;43.570;27.832;2022-10-26T05:23:05;9.40;;;5.68;;
9716;SDS011;4897;43.570;27.832;2022-10-26T05:25:33;13.30;;;6.07;;
9716;SDS011;4897;43.570;27.832;2022-10-26T05:28:02;13.05;;;6.35;;
9716;SDS011;4897;43.570;27.832;2022-10-26T05:30:32;14.23;;;6.63;;
9716;SDS011;4897;43.570;27.832;2022-10-26T05:33:00;12.63;;;7.00;;
9716;SDS011;4897;43.570;27.832;2022-10-26T05:35:27;15.35;;;6.70;;
9716;SDS011;4897;43.570;27.832;2022-10-26T05:37:56;18.05;;;6.60;;
9716;SDS011;4897;43.570;27.832;2022-10-26T05:40:23;13.73;;;8.98;;
9716;SDS011;4897;43.570;27.832;2022-10-26T05:42:58;13.55;;;6.85;;
9716;SDS011;4897;43.570;27.832;2022-10-26T05:45:25;10.93;;;7.18;;
9716;SDS011;4897;43.570;27.832;2022-10-26T05:47:52;13.57;;;8.00;;
9716;SDS011;4897;43.570;27.832;2022-10-26T05:50:19;12.02;;;6.63;;
9716;SDS011;4897;43.570;27.832;2022-10-26T05:52:46;12.93;;;7.57;;
9716;SDS011;4897;43.570;27.832;2022-10-26T05:55:17;10.05;;;5.95;;
9716;SDS011;4897;43.570;27.832;2022-10-26T05:57:44;14.77;;;6.50;;
9716;SDS011;4897;43.570;27.832;2022-10-26T06:00:14;11.40;;;6.88;;
9716;SDS011;4897;43.570;27.832;2022-10-26T06:02:47;9.02;;;5.70;;
9716;SDS011;4897;43.570;27.832;2022-10-26T06:05:26;11.55;;;6.50;;
9716;SDS011;4897;43.570;27.832;2022-10-26T06:07:58;10.75;;;6.13;;
9716;SDS011;4897;43.570;27.832;2022-10-26T06:10:27;11.98;;;6.15;;
9716;SDS011;4897;43.570;27.832;2022-10-26T06:12:54;10.13;;;6.18;;
9716;SDS011;4897;43.570;27.832;2022-10-26T06:15:22;12.38;;;6.25;;
9716;SDS011;4897;43.570;27.832;2022-10-26T06:17:52;11.32;;;5.88;;
9716;SDS011;4897;43.570;27.832;2022-10-26T06:20:32;10.13;;;5.93;;
9716;SDS011;4897;43.570;27.832;2022-10-26T06:23:16;11.85;;;6.55;;
9716;SDS011;4897;43.570;27.832;2022-10-26T06:26:08;11.25;;;5.07;;
9716;SDS011;4897;43.570;27.832;2022-10-26T06:28:45;6.88;;;5.45;;
9716;SDS011;4897;43.570;27.832;2022-10-26T06:31:18;8.75;;;5.38;;
9716;SDS011;4897;43.570;27.832;2022-10-26T06:33:45;13.75;;;5.70;;
9716;SDS011;4897;43.570;27.832;2022-10-26T06:36:15;10.52;;;4.82;;
9716;SDS011;4897;43.570;27.832;2022-10-26T06:38:47;9.25;;;5.88;;
9716;SDS011;4897;43.570;27.832;2022-10-26T06:41:21;9.20;;;4.80;;
9716;SDS011;4897;43.570;27.832;2022-10-26T06:43:49;11.13;;;5.97;;
9716;SDS011;4897;43.570;27.832;2022-10-26T06:46:20;10.50;;;5.13;;
9716;SDS011;4897;43.570;27.832;2022-10-26T06:48:58;10.82;;;5.32;;
9716;SDS011;4897;43.570;27.832;2022-10-26T06:51:30;8.50;;;5.30;;
9716;SDS011;4897;43.570;27.832;2022-10-26T06:54:09;11.35;;;5.15;;
9716;SDS011;4897;43.570;27.832;2022-10-26T06:56:43;14.07;;;5.43;;
9716;SDS011;4897;43.570;27.832;2022-10-26T06:59:13;11.63;;;5.63;;
9716;SDS011;4897;43.570;27.832;2022-10-26T07:01:45;10.13;;;4.75;;
9716;SDS011;4897;43.570;27.832;2022-10-26T07:04:12;7.63;;;5.35;;
9716;SDS011;4897;43.570;27.832;2022-10-26T07:06:39;7.35;;;5.43;;
9716;SDS011;4897;43.570;27.832;2022-10-26T07:09:06;9.82;;;4.80;;
9716;SDS011;4897;43.570;27.832;2022-10-26T07:11:33;10.25;;;4.60;;
9716;SDS011;4897;43.570;27.832;2022-10-26T07:14:01;6.00;;;4.45;;
9716;SDS011;4897;43.570;27.832;2022-10-26T07:16:28;5.97;;;4.72;;
9716;SDS011;4897;43.570;27.832;2022-10-26T07:18:55;9.05;;;4.35;;
9716;SDS011;4897;43.570;27.832;2022-10-26T07:21:22;6.90;;;4.80;;
9716;SDS011;4897;43.570;27.832;2022-10-26T07:23:48;11.65;;;4.78;;
9716;SDS011;4897;43.570;27.832;2022-10-26T07:26:16;5.13;;;4.03;;
9716;SDS011;4897;43.570;27.832;2022-10-26T07:28:43;9.32;;;3.95;;
9716;SDS011;4897;43.570;27.832;2022-10-26T07:31:15;11.07;;;4.25;;
9716;SDS011;4897;43.570;27.832;2022-10-26T07:33:42;10.23;;;3.35;;
9716;SDS011;4897;43.570;27.832;2022-10-26T07:36:10;4.70;;;3.40;;
9716;SDS011;4897;43.570;27.832;2022-10-26T07:38:37;4.55;;;2.92;;
9716;SDS011;4897;43.570;27.832;2022-10-26T07:41:04;8.32;;;3.30;;
9716;SDS011;4897;43.570;27.832;2022-10-26T07:43:31;7.70;;;3.47;;
9716;SDS011;4897;43.570;27.832;2022-10-26T07:45:58;7.28;;;3.35;;
9716;SDS011;4897;43.570;27.832;2022-10-26T07:48:27;5.60;;;3.22;;
9716;SDS011;4897;43.570;27.832;2022-10-26T07:50:53;3.53;;;2.83;;
9716;SDS011;4897;43.570;27.832;2022-10-26T07:53:21;4.50;;;2.95;;
9716;SDS011;4897;43.570;27.832;2022-10-26T07:55:51;6.25;;;2.40;;
9716;SDS011;4897;43.570;27.832;2022-10-26T07:58:21;4.00;;;3.05;;
9716;SDS011;4897;43.570;27.832;2022-10-26T08:00:51;6.15;;;3.28;;
9716;SDS011;4897;43.570;27.832;2022-10-26T08:03:19;8.45;;;3.83;;
9716;SDS011;4897;43.570;27.832;2022-10-26T08:05:48;4.05;;;2.92;;
9716;SDS011;4897;43.570;27.832;2022-10-26T08:08:18;6.45;;;3.47;;
9716;SDS011;4897;43.570;27.832;2022-10-26T08:10:45;7.18;;;3.30;;
9716;SDS011;4897;43.570;27.832;2022-10-26T08:13:12;5.03;;;3.47;;
9716;SDS011;4897;43.570;27.832;2022-10-26T08:15:39;5.50;;;3.30;;
9716;SDS011;4897;43.570;27.832;2022-10-26T08:18:07;4.25;;;2.97;;
9716;SDS011;4897;43.570;27.832;2022-10-26T08:20:33;5.90;;;3.08;;
9716;SDS011;4897;43.570;27.832;2022-10-26T08:23:05;7.70;;;2.97;;
9716;SDS011;4897;43.570;27.832;2022-10-26T08:25:32;8.40;;;3.08;;
9716;SDS011;4897;43.570;27.832;2022-10-26T08:28:01;12.23;;;3.35;;
9716;SDS011;4897;43.570;27.832;2022-10-26T08:30:28;7.13;;;3.50;;
9716;SDS011;4897;43.570;27.832;2022-10-26T08:32:59;4.20;;;2.65;;
9716;SDS011;4897;43.570;27.832;2022-10-26T08:35:26;3.60;;;2.70;;
9716;SDS011;4897;43.570;27.832;2022-10-26T08:37:53;6.47;;;2.83;;
9716;SDS011;4897;43.570;27.832;2022-10-26T08:40:23;6.60;;;2.30;;
9716;SDS011;4897;43.570;27.832;2022-10-26T08:42:52;7.05;;;3.10;;
9716;SDS011;4897;43.570;27.832;2022-10-26T08:45:25;7.60;;;2.30;;
9716;SDS011;4897;43.570;27.832;2022-10-26T08:47:55;7.85;;;3.05;;
9716;SDS011;4897;43.570;27.832;2022-10-26T08:50:26;4.32;;;3.25;;
9716;SDS011;4897;43.570;27.832;2022-10-26T08:52:58;4.70;;;2.70;;
9716;SDS011;4897;43.570;27.832;2022-10-26T08:55:32;6.75;;;2.65;;
9716;SDS011;4897;43.570;27.832;2022-10-26T08:58:06;6.05;;;2.80;;
9716;SDS011;4897;43.570;27.832;2022-10-26T09:00:39;7.43;;;2.50;;
9716;SDS011;4897;43.570;27.832;2022-10-26T09:03:11;4.30;;;3.03;;
9716;SDS011;4897;43.570;27.832;2022-10-26T09:05:42;2.67;;;2.22;;
9716;SDS011;4897;43.570;27.832;2022-10-26T09:08:19;5.85;;;2.58;;
9716;SDS011;4897;43.570;27.832;2022-10-26T09:10:59;7.35;;;2.85;;
9716;SDS011;4897;43.570;27.832;2022-10-26T09:13:36;3.47;;;2.70;;
9716;SDS011;4897;43.570;27.832;2022-10-26T09:16:16;4.10;;;2.67;;
9716;SDS011;4897;43.570;27.832;2022-10-26T09:18:51;6.03;;;3.03;;
9716;SDS011;4897;43.570;27.832;2022-10-26T09:21:31;5.35;;;2.78;;
9716;SDS011;4897;43.570;27.832;2022-10-26T09:24:08;8.10;;;3.40;;
9716;SDS011;4897;43.570;27.832;2022-10-26T09:26:43;7.10;;;3.08;;
9716;SDS011;4897;43.570;27.832;2022-10-26T09:29:20;3.58;;;2.85;;
9716;SDS011;4897;43.570;27.832;2022-10-26T09:31:51;3.08;;;2.60;;
9716;SDS011;4897;43.570;27.832;2022-10-26T09:34:23;4.50;;;3.20;;
9716;SDS011;4897;43.570;27.832;2022-10-26T09:36:54;4.18;;;2.60;;
9716;SDS011;4897;43.570;27.832;2022-10-26T09:39:26;2.95;;;2.63;;
9716;SDS011;4897;43.570;27.832;2022-10-26T09:42:06;4.15;;;2.38;;
9716;SDS011;4897;43.570;27.832;2022-10-26T09:44:44;4.78;;;2.30;;
9716;SDS011;4897;43.570;27.832;2022-10-26T09:47:19;3.78;;;2.30;;
9716;SDS011;4897;43.570;27.832;2022-10-26T09:49:57;2.70;;;2.30;;
9716;SDS011;4897;43.570;27.832;2022-10-26T09:52:33;4.80;;;2.85;;
9716;SDS011;4897;43.570;27.832;2022-10-26T09:55:00;4.40;;;2.72;;
9716;SDS011;4897;43.570;27.832;2022-10-26T09:57:28;5.85;;;3.28;;
9716;SDS011;4897;43.570;27.832;2022-10-26T09:59:55;9.20;;;2.80;;
9716;SDS011;4897;43.570;27.832;2022-10-26T10:02:33;3.45;;;2.45;;
9716;SDS011;4897;43.570;27.832;2022-10-26T10:05:01;6.97;;;2.40;;
9716;SDS011;4897;43.570;27.832;2022-10-26T10:07:30;3.17;;;2.33;;
9716;SDS011;4897;43.570;27.832;2022-10-26T10:10:05;3.83;;;2.17;;
9716;SDS011;4897;43.570;27.832;2022-10-26T10:12:34;4.10;;;2.30;;
9716;SDS011;4897;43.570;27.832;2022-10-26T10:15:01;4.18;;;2.10;;
9716;SDS011;4897;43.570;27.832;2022-10-26T10:17:29;4.72;;;2.35;;
9716;SDS011;4897;43.570;27.832;2022-10-26T10:20:05;4.53;;;2.10;;
9716;SDS011;4897;43.570;27.832;2022-10-26T10:22:36;3.05;;;2.30;;
9716;SDS011;4897;43.570;27.832;2022-10-26T10:25:22;4.63;;;2.25;;
9716;SDS011;4897;43.570;27.832;2022-10-26T10:27:59;4.53;;;2.05;;
9716;SDS011;4897;43.570;27.832;2022-10-26T10:30:28;3.30;;;2.22;;
9716;SDS011;4897;43.570;27.832;2022-10-26T10:33:04;4.45;;;2.45;;
9716;SDS011;4897;43.570;27.832;2022-10-26T10:35:33;4.18;;;2.13;;
9716;SDS011;4897;43.570;27.832;2022-10-26T10:38:01;3.83;;;2.47;;
9716;SDS011;4897;43.570;27.832;2022-10-26T10:40:29;6.70;;;2.38;;
9716;SDS011;4897;43.570;27.832;2022-10-26T10:43:05;3.58;;;2.17;;
9716;SDS011;4897;43.570;27.832;2022-10-26T10:45:37;3.42;;;2.35;;
9716;SDS011;4897;43.570;27.832;2022-10-26T10:48:12;5.15;;;2.25;;
9716;SDS011;4897;43.570;27.832;2022-10-26T10:50:49;2.72;;;2.08;;
9716;SDS011;4897;43.570;27.832;2022-10-26T10:53:19;3.33;;;2.45;;
9716;SDS011;4897;43.570;27.832;2022-10-26T10:56:00;2.35;;;1.80;;
9716;SDS011;4897;43.570;27.832;2022-10-26T10:58:39;3.17;;;2.55;;
9716;SDS011;4897;43.570;27.832;2022-10-26T11:01:13;4.10;;;2.38;;
9716;SDS011;4897;43.570;27.832;2022-10-26T11:06:35;14.35;;;2.10;;
9716;SDS011;4897;43.570;27.832;2022-10-26T11:09:06;2.33;;;1.80;;
9716;SDS011;4897;43.570;27.832;2022-10-26T11:11:37;6.13;;;1.88;;
9716;SDS011;4897;43.570;27.832;2022-10-26T11:14:12;2.95;;;2.03;;
9716;SDS011;4897;43.570;27.832;2022-10-26T11:16:43;5.50;;;2.22;;
9716;SDS011;4897;43.570;27.832;2022-10-26T11:19:16;4.32;;;2.38;;
9716;SDS011;4897;43.570;27.832;2022-10-26T11:21:47;12.82;;;2.85;;
9716;SDS011;4897;43.570;27.832;2022-10-26T11:24:19;4.03;;;2.13;;
9716;SDS011;4897;43.570;27.832;2022-10-26T11:26:55;3.30;;;2.20;;
9716;SDS011;4897;43.570;27.832;2022-10-26T11:29:30;4.00;;;2.10;;
9716;SDS011;4897;43.570;27.832;2022-10-26T11:32:02;4.63;;;2.28;;
9716;SDS011;4897;43.570;27.832;2022-10-26T11:34:40;4.68;;;2.30;;
9716;SDS011;4897;43.570;27.832;2022-10-26T11:37:16;3.28;;;1.92;;
9716;SDS011;4897;43.570;27.832;2022-10-26T11:39:51;2.55;;;1.98;;
9716;SDS011;4897;43.570;27.832;2022-10-26T11:42:30;4.07;;;2.20;;
9716;SDS011;4897;43.570;27.832;2022-10-26T11:45:09;3.28;;;2.08;;
9716;SDS011;4897;43.570;27.832;2022-10-26T11:47:41;4.13;;;2.20;;
9716;SDS011;4897;43.570;27.832;2022-10-26T11:50:14;2.83;;;1.90;;
9716;SDS011;4897;43.570;27.832;2022-10-26T11:52:45;3.03;;;1.80;;
9716;SDS011;4897;43.570;27.832;2022-10-26T11:55:17;2.97;;;2.03;;
9716;SDS011;4897;43.570;27.832;2022-10-26T11:57:47;8.20;;;3.20;;
9716;SDS011;4897;43.570;27.832;2022-10-26T12:00:19;3.58;;;2.00;;
9716;SDS011;4897;43.570;27.832;2022-10-26T12:02:48;6.20;;;2.22;;
9716;SDS011;4897;43.570;27.832;2022-10-26T12:05:19;2.83;;;2.30;;
9716;SDS011;4897;43.570;27.832;2022-10-26T12:07:49;3.92;;;2.17;;
9716;SDS011;4897;43.570;27.832;2022-10-26T12:10:21;7.30;;;2.50;;
9716;SDS011;4897;43.570;27.832;2022-10-26T12:12:58;5.82;;;2.30;;
9716;SDS011;4897;43.570;27.832;2022-10-26T12:15:40;3.88;;;2.20;;
9716;SDS011;4897;43.570;27.832;2022-10-26T12:18:13;2.72;;;2.00;;
9716;SDS011;4897;43.570;27.832;2022-10-26T12:20:59;5.40;;;2.45;;
9716;SDS011;4897;43.570;27.832;2022-10-26T12:23:32;8.73;;;2.40;;
9716;SDS011;4897;43.570;27.832;2022-10-26T12:31:56;6.10;;;3.05;;
9716;SDS011;4897;43.570;27.832;2022-10-26T12:34:23;4.72;;;2.35;;
9716;SDS011;4897;43.570;27.832;2022-10-26T12:37:21;3.65;;;2.22;;
9716;SDS011;4897;43.570;27.832;2022-10-26T12:40:07;4.28;;;2.28;;
9716;SDS011;4897;43.570;27.832;2022-10-26T12:58:25;4.88;;;2.00;;
9716;SDS011;4897;43.570;27.832;2022-10-26T13:01:21;4.68;;;2.00;;
9716;SDS011;4897;43.570;27.832;2022-10-26T13:04:28;2.33;;;2.00;;
9716;SDS011;4897;43.570;27.832;2022-10-26T13:07:15;4.07;;;2.13;;
9716;SDS011;4897;43.570;27.832;2022-10-26T13:09:50;8.02;;;2.50;;
9716;SDS011;4897;43.570;27.832;2022-10-26T13:12:27;4.53;;;2.45;;
9716;SDS011;4897;43.570;27.832;2022-10-26T13:15:03;4.13;;;2.97;;
9716;SDS011;4897;43.570;27.832;2022-10-26T13:17:50;5.40;;;2.42;;
9716;SDS011;4897;43.570;27.832;2022-10-26T13:20:20;4.65;;;2.10;;
9716;SDS011;4897;43.570;27.832;2022-10-26T13:22:47;3.65;;;2.35;;
9716;SDS011;4897;43.570;27.832;2022-10-26T13:25:20;3.75;;;2.50;;
9716;SDS011;4897;43.570;27.832;2022-10-26T13:27:57;2.92;;;1.90;;
9716;SDS011;4897;43.570;27.832;2022-10-26T13:36:01;3.75;;;2.15;;
9716;SDS011;4897;43.570;27.832;2022-10-26T13:38:41;6.68;;;3.67;;
9716;SDS011;4897;43.570;27.832;2022-10-26T13:41:16;7.68;;;3.30;;
9716;SDS011;4897;43.570;27.832;2022-10-26T13:43:49;6.13;;;3.05;;
9716;SDS011;4897;43.570;27.832;2022-10-26T13:46:20;5.20;;;2.95;;
9716;SDS011;4897;43.570;27.832;2022-10-26T13:48:50;2.72;;;2.20;;
9716;SDS011;4897;43.570;27.832;2022-10-26T13:51:20;5.32;;;2.45;;
9716;SDS011;4897;43.570;27.832;2022-10-26T13:53:50;5.05;;;2.53;;
9716;SDS011;4897;43.570;27.832;2022-10-26T13:56:27;3.20;;;2.53;;
9716;SDS011;4897;43.570;27.832;2022-10-26T13:58:59;6.57;;;2.42;;
9716;SDS011;4897;43.570;27.832;2022-10-26T14:01:29;12.05;;;5.68;;
9716;SDS011;4897;43.570;27.832;2022-10-26T14:03:57;4.18;;;3.20;;
9716;SDS011;4897;43.570;27.832;2022-10-26T14:06:26;8.43;;;3.33;;
9716;SDS011;4897;43.570;27.832;2022-10-26T14:08:58;11.70;;;3.95;;
9716;SDS011;4897;43.570;27.832;2022-10-26T14:11:31;6.28;;;3.45;;
9716;SDS011;4897;43.570;27.832;2022-10-26T14:14:01;4.43;;;2.92;;
9716;SDS011;4897;43.570;27.832;2022-10-26T14:16:30;8.30;;;2.65;;
9716;SDS011;4897;43.570;27.832;2022-10-26T14:18:59;27.15;;;21.10;;
9716;SDS011;4897;43.570;27.832;2022-10-26T14:21:26;6.55;;;3.90;;
9716;SDS011;4897;43.570;27.832;2022-10-26T14:23:55;8.60;;;5.47;;
9716;SDS011;4897;43.570;27.832;2022-10-26T14:26:25;5.30;;;3.78;;
9716;SDS011;4897;43.570;27.832;2022-10-26T14:28:57;8.95;;;3.92;;
9716;SDS011;4897;43.570;27.832;2022-10-26T14:31:26;12.02;;;3.70;;
9716;SDS011;4897;43.570;27.832;2022-10-26T14:33:56;28.83;;;25.73;;
9716;SDS011;4897;43.570;27.832;2022-10-26T14:36:27;8.77;;;4.75;;
9716;SDS011;4897;43.570;27.832;2022-10-26T14:38:58;10.65;;;3.80;;
9716;SDS011;4897;43.570;27.832;2022-10-26T14:41:30;7.03;;;3.53;;
9716;SDS011;4897;43.570;27.832;2022-10-26T14:44:01;11.07;;;5.43;;
9716;SDS011;4897;43.570;27.832;2022-10-26T14:46:33;11.93;;;4.57;;
9716;SDS011;4897;43.570;27.832;2022-10-26T14:49:01;9.90;;;4.10;;
9716;SDS011;4897;43.570;27.832;2022-10-26T14:51:29;34.17;;;27.60;;
9716;SDS011;4897;43.570;27.832;2022-10-26T14:54:01;23.40;;;6.47;;
9716;SDS011;4897;43.570;27.832;2022-10-26T14:56:30;9.05;;;4.30;;
9716;SDS011;4897;43.570;27.832;2022-10-26T14:59:10;17.45;;;12.27;;
9716;SDS011;4897;43.570;27.832;2022-10-26T15:01:48;31.95;;;19.38;;
9716;SDS011;4897;43.570;27.832;2022-10-26T15:04:25;14.98;;;10.07;;
9716;SDS011;4897;43.570;27.832;2022-10-26T15:09:42;8.95;;;4.07;;
9716;SDS011;4897;43.570;27.832;2022-10-26T15:15:05;12.07;;;4.75;;
9716;SDS011;4897;43.570;27.832;2022-10-26T15:17:47;7.55;;;3.58;;
9716;SDS011;4897;43.570;27.832;2022-10-26T15:20:17;22.90;;;9.80;;
9716;SDS011;4897;43.570;27.832;2022-10-26T15:22:49;22.83;;;16.80;;
9716;SDS011;4897;43.570;27.832;2022-10-26T15:25:19;28.23;;;17.55;;
9716;SDS011;4897;43.570;27.832;2022-10-26T15:27:47;14.88;;;3.20;;
9716;SDS011;4897;43.570;27.832;2022-10-26T15:30:21;24.65;;;10.65;;
9716;SDS011;4897;43.570;27.832;2022-10-26T15:32:50;7.88;;;4.00;;
9716;SDS011;4897;43.570;27.832;2022-10-26T15:35:27;18.70;;;12.15;;
9716;SDS011;4897;43.570;27.832;2022-10-26T15:37:55;11.38;;;7.93;;
9716;SDS011;4897;43.570;27.832;2022-10-26T15:40:24;15.93;;;4.57;;
9716;SDS011;4897;43.570;27.832;2022-10-26T15:42:53;23.85;;;8.05;;
9716;SDS011;4897;43.570;27.832;2022-10-26T15:45:22;9.40;;;4.68;;
9716;SDS011;4897;43.570;27.832;2022-10-26T15:47:50;11.07;;;4.80;;
9716;SDS011;4897;43.570;27.832;2022-10-26T15:50:20;26.38;;;6.75;;
9716;SDS011;4897;43.570;27.832;2022-10-26T15:52:48;37.55;;;13.30;;
9716;SDS011;4897;43.570;27.832;2022-10-26T15:55:20;41.05;;;19.35;;
9716;SDS011;4897;43.570;27.832;2022-10-26T15:57:47;41.78;;;17.77;;